sensor_id;sensor_type;location;lat;lon;timestamp;P1;durP1;ratioP1;P2;durP2;ratioP2
74808;SDS011;63338;39.544;2.596;2023-05-02T00:02:01;9.65;;;1.50;;
74808;SDS011;63338;39.544;2.596;2023-05-02T00:04:28;6.75;;;1.20;;
74808;SDS011;63338;39.544;2.596;2023-05-02T00:06:54;10.52;;;1.42;;
74808;SDS011;63338;39.544;2.596;2023-05-02T00:09:25;5.60;;;1.40;;
74808;SDS011;63338;39.544;2.596;2023-05-02T00:11:51;10.25;;;1.42;;
74808;SDS011;63338;39.544;2.596;2023-05-02T00:14:17;9.85;;;1.83;;
74808;SDS011;63338;39.544;2.596;2023-05-02T00:16:46;10.88;;;1.50;;
74808;SDS011;63338;39.544;2.596;2023-05-02T00:19:12;5.70;;;1.23;;
74808;SDS011;63338;39.544;2.596;2023-05-02T00:21:38;7.40;;;1.42;;
74808;SDS011;63338;39.544;2.596;2023-05-02T00:24:04;8.23;;;1.83;;
74808;SDS011;63338;39.544;2.596;2023-05-02T00:26:31;6.50;;;1.50;;
74808;SDS011;63338;39.544;2.596;2023-05-02T00:28:57;9.75;;;1.50;;
74808;SDS011;63338;39.544;2.596;2023-05-02T00:31:23;9.73;;;1.60;;
74808;SDS011;63338;39.544;2.596;2023-05-02T00:33:49;8.07;;;1.35;;
74808;SDS011;63338;39.544;2.596;2023-05-02T00:36:17;9.15;;;1.73;;
74808;SDS011;63338;39.544;2.596;2023-05-02T00:38:44;8.30;;;1.48;;
74808;SDS011;63338;39.544;2.596;2023-05-02T00:41:13;7.95;;;1.70;;
74808;SDS011;63338;39.544;2.596;2023-05-02T00:46:09;9.10;;;1.88;;
74808;SDS011;63338;39.544;2.596;2023-05-02T00:48:39;9.77;;;1.75;;
74808;SDS011;63338;39.544;2.596;2023-05-02T00:51:05;6.90;;;1.35;;
74808;SDS011;63338;39.544;2.596;2023-05-02T00:53:32;5.78;;;1.45;;
74808;SDS011;63338;39.544;2.596;2023-05-02T00:56:03;12.18;;;1.85;;
74808;SDS011;63338;39.544;2.596;2023-05-02T00:58:29;7.32;;;1.50;;
74808;SDS011;63338;39.544;2.596;2023-05-02T01:12:00;12.20;;;1.88;;
74808;SDS011;63338;39.544;2.596;2023-05-02T01:14:43;8.20;;;1.33;;
74808;SDS011;63338;39.544;2.596;2023-05-02T01:17:12;5.57;;;1.50;;
74808;SDS011;63338;39.544;2.596;2023-05-02T01:19:42;8.00;;;1.75;;
74808;SDS011;63338;39.544;2.596;2023-05-02T01:22:15;7.13;;;1.70;;
74808;SDS011;63338;39.544;2.596;2023-05-02T01:24:59;7.45;;;1.58;;
74808;SDS011;63338;39.544;2.596;2023-05-02T01:27:46;6.88;;;1.60;;
74808;SDS011;63338;39.544;2.596;2023-05-02T01:30:38;7.90;;;1.73;;
74808;SDS011;63338;39.544;2.596;2023-05-02T01:33:08;9.13;;;1.80;;
74808;SDS011;63338;39.544;2.596;2023-05-02T01:35:37;6.45;;;1.75;;
74808;SDS011;63338;39.544;2.596;2023-05-02T01:38:07;9.70;;;1.67;;
74808;SDS011;63338;39.544;2.596;2023-05-02T01:40:34;8.32;;;1.73;;
74808;SDS011;63338;39.544;2.596;2023-05-02T01:43:02;7.57;;;1.75;;
74808;SDS011;63338;39.544;2.596;2023-05-02T01:45:30;11.27;;;1.95;;
74808;SDS011;63338;39.544;2.596;2023-05-02T01:47:59;9.95;;;1.50;;
74808;SDS011;63338;39.544;2.596;2023-05-02T01:50:27;7.55;;;1.58;;
74808;SDS011;63338;39.544;2.596;2023-05-02T01:52:53;6.13;;;1.52;;
74808;SDS011;63338;39.544;2.596;2023-05-02T01:55:22;10.00;;;1.70;;
74808;SDS011;63338;39.544;2.596;2023-05-02T01:57:53;8.88;;;1.60;;
74808;SDS011;63338;39.544;2.596;2023-05-02T02:00:23;8.45;;;1.48;;
74808;SDS011;63338;39.544;2.596;2023-05-02T02:02:51;7.75;;;1.40;;
74808;SDS011;63338;39.544;2.596;2023-05-02T02:05:19;10.45;;;2.05;;
74808;SDS011;63338;39.544;2.596;2023-05-02T02:07:48;10.88;;;1.90;;
74808;SDS011;63338;39.544;2.596;2023-05-02T02:10:15;4.78;;;1.60;;
74808;SDS011;63338;39.544;2.596;2023-05-02T02:12:41;6.57;;;1.52;;
74808;SDS011;63338;39.544;2.596;2023-05-02T02:15:20;6.30;;;1.48;;
74808;SDS011;63338;39.544;2.596;2023-05-02T02:20:28;6.43;;;1.55;;
74808;SDS011;63338;39.544;2.596;2023-05-02T02:22:56;10.27;;;1.70;;
74808;SDS011;63338;39.544;2.596;2023-05-02T02:25:25;7.60;;;1.42;;
74808;SDS011;63338;39.544;2.596;2023-05-02T02:27:52;9.02;;;1.40;;
74808;SDS011;63338;39.544;2.596;2023-05-02T02:30:18;7.75;;;1.42;;
74808;SDS011;63338;39.544;2.596;2023-05-02T02:32:44;10.43;;;1.73;;
74808;SDS011;63338;39.544;2.596;2023-05-02T02:35:16;7.22;;;1.40;;
74808;SDS011;63338;39.544;2.596;2023-05-02T02:38:01;9.18;;;1.63;;
74808;SDS011;63338;39.544;2.596;2023-05-02T02:40:50;10.18;;;2.15;;
74808;SDS011;63338;39.544;2.596;2023-05-02T02:43:43;7.13;;;1.70;;
74808;SDS011;63338;39.544;2.596;2023-05-02T02:46:46;7.50;;;1.85;;
74808;SDS011;63338;39.544;2.596;2023-05-02T02:52:09;5.35;;;1.45;;
74808;SDS011;63338;39.544;2.596;2023-05-02T02:54:46;6.28;;;1.30;;
74808;SDS011;63338;39.544;2.596;2023-05-02T02:57:33;8.98;;;1.38;;
74808;SDS011;63338;39.544;2.596;2023-05-02T03:00:18;6.13;;;1.63;;
74808;SDS011;63338;39.544;2.596;2023-05-02T03:02:46;10.55;;;2.00;;
74808;SDS011;63338;39.544;2.596;2023-05-02T03:05:12;7.43;;;1.60;;
74808;SDS011;63338;39.544;2.596;2023-05-02T03:07:39;6.75;;;1.98;;
74808;SDS011;63338;39.544;2.596;2023-05-02T03:10:06;5.47;;;1.63;;
74808;SDS011;63338;39.544;2.596;2023-05-02T03:12:32;8.52;;;1.73;;
74808;SDS011;63338;39.544;2.596;2023-05-02T03:15:13;9.38;;;1.73;;
74808;SDS011;63338;39.544;2.596;2023-05-02T03:17:44;9.65;;;2.08;;
74808;SDS011;63338;39.544;2.596;2023-05-02T03:20:10;7.32;;;1.73;;
74808;SDS011;63338;39.544;2.596;2023-05-02T03:22:36;9.65;;;1.77;;
74808;SDS011;63338;39.544;2.596;2023-05-02T03:25:03;6.95;;;1.83;;
74808;SDS011;63338;39.544;2.596;2023-05-02T03:27:29;8.73;;;1.73;;
74808;SDS011;63338;39.544;2.596;2023-05-02T03:29:56;6.75;;;1.98;;
74808;SDS011;63338;39.544;2.596;2023-05-02T03:32:22;6.30;;;1.60;;
74808;SDS011;63338;39.544;2.596;2023-05-02T03:34:48;12.52;;;1.70;;
74808;SDS011;63338;39.544;2.596;2023-05-02T03:37:22;9.98;;;2.03;;
74808;SDS011;63338;39.544;2.596;2023-05-02T03:39:49;8.02;;;1.38;;
74808;SDS011;63338;39.544;2.596;2023-05-02T03:42:15;11.32;;;1.83;;
74808;SDS011;63338;39.544;2.596;2023-05-02T03:44:41;7.82;;;2.30;;
74808;SDS011;63338;39.544;2.596;2023-05-02T03:47:08;8.23;;;2.17;;
74808;SDS011;63338;39.544;2.596;2023-05-02T03:49:35;5.45;;;1.60;;
74808;SDS011;63338;39.544;2.596;2023-05-02T03:52:01;8.07;;;1.92;;
74808;SDS011;63338;39.544;2.596;2023-05-02T03:54:31;6.95;;;1.77;;
74808;SDS011;63338;39.544;2.596;2023-05-02T03:56:57;7.30;;;1.73;;
74808;SDS011;63338;39.544;2.596;2023-05-02T04:01:56;7.93;;;1.83;;
74808;SDS011;63338;39.544;2.596;2023-05-02T04:04:22;9.80;;;2.97;;
74808;SDS011;63338;39.544;2.596;2023-05-02T04:06:48;5.03;;;1.70;;
74808;SDS011;63338;39.544;2.596;2023-05-02T04:09:14;8.45;;;1.80;;
74808;SDS011;63338;39.544;2.596;2023-05-02T04:11:40;7.65;;;1.85;;
74808;SDS011;63338;39.544;2.596;2023-05-02T04:14:06;6.75;;;2.20;;
74808;SDS011;63338;39.544;2.596;2023-05-02T04:16:32;5.55;;;1.58;;
74808;SDS011;63338;39.544;2.596;2023-05-02T04:19:01;10.95;;;2.30;;
74808;SDS011;63338;39.544;2.596;2023-05-02T04:21:27;7.70;;;2.15;;
74808;SDS011;63338;39.544;2.596;2023-05-02T04:23:53;8.93;;;1.80;;
74808;SDS011;63338;39.544;2.596;2023-05-02T04:26:19;7.35;;;2.00;;
74808;SDS011;63338;39.544;2.596;2023-05-02T04:31:16;10.70;;;2.03;;
74808;SDS011;63338;39.544;2.596;2023-05-02T04:33:42;7.22;;;1.90;;
74808;SDS011;63338;39.544;2.596;2023-05-02T04:36:08;6.63;;;1.98;;
74808;SDS011;63338;39.544;2.596;2023-05-02T04:38:35;8.05;;;2.10;;
74808;SDS011;63338;39.544;2.596;2023-05-02T04:41:01;10.23;;;2.28;;
74808;SDS011;63338;39.544;2.596;2023-05-02T04:43:27;6.40;;;1.73;;
74808;SDS011;63338;39.544;2.596;2023-05-02T04:45:53;5.88;;;1.85;;
74808;SDS011;63338;39.544;2.596;2023-05-02T04:48:20;7.35;;;1.80;;
74808;SDS011;63338;39.544;2.596;2023-05-02T04:50:46;7.85;;;1.92;;
74808;SDS011;63338;39.544;2.596;2023-05-02T04:53:12;7.35;;;1.83;;
74808;SDS011;63338;39.544;2.596;2023-05-02T04:55:38;12.90;;;2.08;;
74808;SDS011;63338;39.544;2.596;2023-05-02T04:58:04;5.53;;;1.88;;
74808;SDS011;63338;39.544;2.596;2023-05-02T05:00:30;6.82;;;2.25;;
74808;SDS011;63338;39.544;2.596;2023-05-02T05:02:56;10.35;;;4.15;;
74808;SDS011;63338;39.544;2.596;2023-05-02T05:05:23;8.82;;;2.80;;
74808;SDS011;63338;39.544;2.596;2023-05-02T05:07:49;7.93;;;2.22;;
74808;SDS011;63338;39.544;2.596;2023-05-02T05:10:15;6.20;;;2.53;;
74808;SDS011;63338;39.544;2.596;2023-05-02T05:12:41;7.32;;;2.22;;
74808;SDS011;63338;39.544;2.596;2023-05-02T05:15:08;6.53;;;2.20;;
74808;SDS011;63338;39.544;2.596;2023-05-02T05:17:34;7.10;;;2.50;;
74808;SDS011;63338;39.544;2.596;2023-05-02T05:20:00;5.65;;;2.20;;
74808;SDS011;63338;39.544;2.596;2023-05-02T05:22:26;10.38;;;2.53;;
74808;SDS011;63338;39.544;2.596;2023-05-02T05:24:53;7.63;;;2.30;;
74808;SDS011;63338;39.544;2.596;2023-05-02T05:27:19;7.60;;;2.13;;
74808;SDS011;63338;39.544;2.596;2023-05-02T05:29:46;7.07;;;2.28;;
74808;SDS011;63338;39.544;2.596;2023-05-02T05:32:12;9.25;;;2.08;;
74808;SDS011;63338;39.544;2.596;2023-05-02T05:34:38;6.28;;;1.92;;
74808;SDS011;63338;39.544;2.596;2023-05-02T05:37:04;7.78;;;2.42;;
74808;SDS011;63338;39.544;2.596;2023-05-02T05:39:30;6.63;;;2.35;;
74808;SDS011;63338;39.544;2.596;2023-05-02T05:41:56;6.15;;;2.15;;
74808;SDS011;63338;39.544;2.596;2023-05-02T05:44:26;6.82;;;2.10;;
74808;SDS011;63338;39.544;2.596;2023-05-02T05:46:52;8.45;;;2.30;;
74808;SDS011;63338;39.544;2.596;2023-05-02T05:49:18;6.18;;;2.00;;
74808;SDS011;63338;39.544;2.596;2023-05-02T05:51:49;7.85;;;2.03;;
74808;SDS011;63338;39.544;2.596;2023-05-02T05:54:19;7.70;;;2.03;;
74808;SDS011;63338;39.544;2.596;2023-05-02T05:56:45;8.57;;;1.98;;
74808;SDS011;63338;39.544;2.596;2023-05-02T05:59:11;8.50;;;1.88;;
74808;SDS011;63338;39.544;2.596;2023-05-02T06:01:37;8.70;;;1.80;;
74808;SDS011;63338;39.544;2.596;2023-05-02T06:04:04;10.10;;;1.83;;
74808;SDS011;63338;39.544;2.596;2023-05-02T06:06:31;8.32;;;1.98;;
74808;SDS011;63338;39.544;2.596;2023-05-02T06:09:01;12.80;;;2.10;;
74808;SDS011;63338;39.544;2.596;2023-05-02T06:11:29;9.75;;;1.85;;
74808;SDS011;63338;39.544;2.596;2023-05-02T06:13:55;8.18;;;1.65;;
74808;SDS011;63338;39.544;2.596;2023-05-02T06:16:21;13.25;;;1.98;;
74808;SDS011;63338;39.544;2.596;2023-05-02T06:18:48;8.35;;;2.00;;
74808;SDS011;63338;39.544;2.596;2023-05-02T06:21:17;6.70;;;1.63;;
74808;SDS011;63338;39.544;2.596;2023-05-02T06:23:43;8.85;;;1.50;;
74808;SDS011;63338;39.544;2.596;2023-05-02T06:26:10;9.93;;;1.92;;
74808;SDS011;63338;39.544;2.596;2023-05-02T06:28:36;10.77;;;1.80;;
74808;SDS011;63338;39.544;2.596;2023-05-02T06:31:03;8.88;;;1.90;;
74808;SDS011;63338;39.544;2.596;2023-05-02T06:33:32;8.63;;;1.88;;
74808;SDS011;63338;39.544;2.596;2023-05-02T06:35:59;7.78;;;1.77;;
74808;SDS011;63338;39.544;2.596;2023-05-02T06:38:31;9.10;;;1.83;;
74808;SDS011;63338;39.544;2.596;2023-05-02T06:40:57;10.65;;;2.05;;
74808;SDS011;63338;39.544;2.596;2023-05-02T06:43:26;9.65;;;1.65;;
74808;SDS011;63338;39.544;2.596;2023-05-02T06:45:52;7.78;;;1.73;;
74808;SDS011;63338;39.544;2.596;2023-05-02T06:48:20;6.90;;;1.60;;
74808;SDS011;63338;39.544;2.596;2023-05-02T06:50:47;8.50;;;1.58;;
74808;SDS011;63338;39.544;2.596;2023-05-02T06:53:14;5.97;;;1.42;;
74808;SDS011;63338;39.544;2.596;2023-05-02T06:55:40;7.80;;;1.48;;
74808;SDS011;63338;39.544;2.596;2023-05-02T06:58:06;7.07;;;1.35;;
74808;SDS011;63338;39.544;2.596;2023-05-02T07:00:32;7.43;;;1.52;;
74808;SDS011;63338;39.544;2.596;2023-05-02T07:02:58;8.93;;;1.88;;
74808;SDS011;63338;39.544;2.596;2023-05-02T07:05:24;8.13;;;1.83;;
74808;SDS011;63338;39.544;2.596;2023-05-02T07:07:51;7.13;;;1.45;;
74808;SDS011;63338;39.544;2.596;2023-05-02T07:10:16;7.72;;;1.45;;
74808;SDS011;63338;39.544;2.596;2023-05-02T07:12:43;4.95;;;1.30;;
74808;SDS011;63338;39.544;2.596;2023-05-02T07:15:09;11.43;;;2.08;;
74808;SDS011;63338;39.544;2.596;2023-05-02T07:17:38;10.00;;;1.80;;
74808;SDS011;63338;39.544;2.596;2023-05-02T07:20:06;7.90;;;1.80;;
74808;SDS011;63338;39.544;2.596;2023-05-02T07:22:33;9.93;;;1.50;;
74808;SDS011;63338;39.544;2.596;2023-05-02T07:25:02;9.15;;;1.65;;
74808;SDS011;63338;39.544;2.596;2023-05-02T07:27:28;8.60;;;1.83;;
74808;SDS011;63338;39.544;2.596;2023-05-02T07:30:05;8.07;;;1.80;;
74808;SDS011;63338;39.544;2.596;2023-05-02T07:32:34;7.03;;;1.50;;
74808;SDS011;63338;39.544;2.596;2023-05-02T07:35:00;9.70;;;1.42;;
74808;SDS011;63338;39.544;2.596;2023-05-02T07:37:31;5.20;;;1.50;;
74808;SDS011;63338;39.544;2.596;2023-05-02T07:40:00;8.55;;;1.67;;
74808;SDS011;63338;39.544;2.596;2023-05-02T07:42:30;6.97;;;1.55;;
74808;SDS011;63338;39.544;2.596;2023-05-02T07:44:57;6.97;;;1.83;;
74808;SDS011;63338;39.544;2.596;2023-05-02T07:47:26;7.53;;;1.98;;
74808;SDS011;63338;39.544;2.596;2023-05-02T07:49:53;6.05;;;1.70;;
74808;SDS011;63338;39.544;2.596;2023-05-02T07:52:20;9.00;;;1.60;;
74808;SDS011;63338;39.544;2.596;2023-05-02T07:54:47;9.93;;;1.70;;
74808;SDS011;63338;39.544;2.596;2023-05-02T07:57:14;7.07;;;1.70;;
74808;SDS011;63338;39.544;2.596;2023-05-02T07:59:40;7.47;;;1.30;;
74808;SDS011;63338;39.544;2.596;2023-05-02T08:02:06;8.98;;;1.30;;
74808;SDS011;63338;39.544;2.596;2023-05-02T08:04:33;9.68;;;1.50;;
74808;SDS011;63338;39.544;2.596;2023-05-02T08:06:59;4.05;;;1.10;;
74808;SDS011;63338;39.544;2.596;2023-05-02T08:09:25;8.95;;;2.03;;
74808;SDS011;63338;39.544;2.596;2023-05-02T08:11:51;8.27;;;2.20;;
74808;SDS011;63338;39.544;2.596;2023-05-02T08:14:17;10.38;;;2.60;;
74808;SDS011;63338;39.544;2.596;2023-05-02T08:16:48;5.70;;;2.13;;
74808;SDS011;63338;39.544;2.596;2023-05-02T08:19:25;9.40;;;2.25;;
74808;SDS011;63338;39.544;2.596;2023-05-02T08:21:52;11.15;;;2.28;;
74808;SDS011;63338;39.544;2.596;2023-05-02T08:24:19;8.10;;;2.17;;
74808;SDS011;63338;39.544;2.596;2023-05-02T08:26:45;8.32;;;1.65;;
74808;SDS011;63338;39.544;2.596;2023-05-02T08:29:12;7.55;;;1.75;;
74808;SDS011;63338;39.544;2.596;2023-05-02T08:31:38;5.70;;;1.63;;
74808;SDS011;63338;39.544;2.596;2023-05-02T08:34:05;5.78;;;1.35;;
74808;SDS011;63338;39.544;2.596;2023-05-02T08:36:32;10.32;;;1.60;;
74808;SDS011;63338;39.544;2.596;2023-05-02T08:39:01;5.93;;;1.40;;
74808;SDS011;63338;39.544;2.596;2023-05-02T08:41:28;5.20;;;1.10;;
74808;SDS011;63338;39.544;2.596;2023-05-02T08:43:55;5.72;;;1.20;;
74808;SDS011;63338;39.544;2.596;2023-05-02T08:46:25;4.75;;;1.00;;
74808;SDS011;63338;39.544;2.596;2023-05-02T08:48:52;4.85;;;1.20;;
74808;SDS011;63338;39.544;2.596;2023-05-02T08:51:23;3.95;;;0.93;;
74808;SDS011;63338;39.544;2.596;2023-05-02T08:53:49;3.88;;;0.80;;
74808;SDS011;63338;39.544;2.596;2023-05-02T08:56:16;4.00;;;0.98;;
74808;SDS011;63338;39.544;2.596;2023-05-02T08:58:43;5.55;;;1.00;;
74808;SDS011;63338;39.544;2.596;2023-05-02T09:01:16;3.72;;;1.00;;
74808;SDS011;63338;39.544;2.596;2023-05-02T09:03:44;5.20;;;1.08;;
74808;SDS011;63338;39.544;2.596;2023-05-02T09:06:19;6.38;;;1.02;;
74808;SDS011;63338;39.544;2.596;2023-05-02T09:08:47;5.15;;;0.95;;
74808;SDS011;63338;39.544;2.596;2023-05-02T09:11:16;5.35;;;1.00;;
74808;SDS011;63338;39.544;2.596;2023-05-02T09:16:11;5.07;;;0.80;;
74808;SDS011;63338;39.544;2.596;2023-05-02T09:18:43;3.75;;;1.00;;
74808;SDS011;63338;39.544;2.596;2023-05-02T09:21:17;5.90;;;0.88;;
74808;SDS011;63338;39.544;2.596;2023-05-02T09:23:45;4.63;;;0.73;;
74808;SDS011;63338;39.544;2.596;2023-05-02T09:26:17;6.88;;;0.82;;
74808;SDS011;63338;39.544;2.596;2023-05-02T09:28:49;5.78;;;1.02;;
74808;SDS011;63338;39.544;2.596;2023-05-02T09:31:16;6.20;;;1.13;;
74808;SDS011;63338;39.544;2.596;2023-05-02T09:33:44;4.72;;;0.80;;
74808;SDS011;63338;39.544;2.596;2023-05-02T09:36:11;4.93;;;1.00;;
74808;SDS011;63338;39.544;2.596;2023-05-02T09:38:42;5.68;;;1.10;;
74808;SDS011;63338;39.544;2.596;2023-05-02T09:41:17;4.10;;;0.75;;
74808;SDS011;63338;39.544;2.596;2023-05-02T09:43:55;6.00;;;1.00;;
74808;SDS011;63338;39.544;2.596;2023-05-02T09:46:22;5.65;;;0.95;;
74808;SDS011;63338;39.544;2.596;2023-05-02T09:51:21;5.55;;;0.80;;
74808;SDS011;63338;39.544;2.596;2023-05-02T09:53:48;3.55;;;0.82;;
74808;SDS011;63338;39.544;2.596;2023-05-02T09:56:14;6.95;;;0.85;;
74808;SDS011;63338;39.544;2.596;2023-05-02T09:58:44;3.45;;;0.77;;
74808;SDS011;63338;39.544;2.596;2023-05-02T10:01:18;3.38;;;0.82;;
74808;SDS011;63338;39.544;2.596;2023-05-02T10:03:47;4.95;;;0.90;;
74808;SDS011;63338;39.544;2.596;2023-05-02T10:06:17;3.65;;;0.80;;
74808;SDS011;63338;39.544;2.596;2023-05-02T10:08:44;3.08;;;0.80;;
74808;SDS011;63338;39.544;2.596;2023-05-02T10:11:12;4.55;;;0.93;;
74808;SDS011;63338;39.544;2.596;2023-05-02T10:13:39;5.65;;;0.70;;
74808;SDS011;63338;39.544;2.596;2023-05-02T10:16:08;4.57;;;0.90;;
74808;SDS011;63338;39.544;2.596;2023-05-02T10:21:15;3.95;;;1.17;;
74808;SDS011;63338;39.544;2.596;2023-05-02T10:23:50;3.60;;;0.80;;
74808;SDS011;63338;39.544;2.596;2023-05-02T10:26:17;3.38;;;0.60;;
74808;SDS011;63338;39.544;2.596;2023-05-02T10:28:46;4.75;;;0.90;;
74808;SDS011;63338;39.544;2.596;2023-05-02T10:31:12;5.82;;;0.80;;
74808;SDS011;63338;39.544;2.596;2023-05-02T10:33:40;3.35;;;0.88;;
74808;SDS011;63338;39.544;2.596;2023-05-02T10:36:09;7.95;;;0.98;;
74808;SDS011;63338;39.544;2.596;2023-05-02T10:38:39;8.35;;;0.70;;
74808;SDS011;63338;39.544;2.596;2023-05-02T10:41:11;7.13;;;1.10;;
74808;SDS011;63338;39.544;2.596;2023-05-02T10:43:46;3.38;;;0.60;;
74808;SDS011;63338;39.544;2.596;2023-05-02T10:46:31;3.13;;;0.85;;
74808;SDS011;63338;39.544;2.596;2023-05-02T10:49:11;4.13;;;1.10;;
74808;SDS011;63338;39.544;2.596;2023-05-02T10:51:38;4.95;;;0.90;;
74808;SDS011;63338;39.544;2.596;2023-05-02T10:59:29;3.30;;;0.70;;
74808;SDS011;63338;39.544;2.596;2023-05-02T11:01:55;4.28;;;0.90;;
74808;SDS011;63338;39.544;2.596;2023-05-02T11:04:22;6.07;;;0.88;;
74808;SDS011;63338;39.544;2.596;2023-05-02T11:07:34;4.65;;;0.70;;
74808;SDS011;63338;39.544;2.596;2023-05-02T11:09:37;2.75;;;0.70;;
74808;SDS011;63338;39.544;2.596;2023-05-02T11:12:03;4.63;;;0.85;;
74808;SDS011;63338;39.544;2.596;2023-05-02T11:24:51;5.35;;;0.82;;
74808;SDS011;63338;39.544;2.596;2023-05-02T11:35:20;4.88;;;1.00;;
74808;SDS011;63338;39.544;2.596;2023-05-02T11:38:02;7.97;;;0.90;;
74808;SDS011;63338;39.544;2.596;2023-05-02T11:40:30;4.05;;;0.85;;
74808;SDS011;63338;39.544;2.596;2023-05-02T11:42:57;7.72;;;1.27;;
74808;SDS011;63338;39.544;2.596;2023-05-02T11:45:31;4.05;;;0.95;;
74808;SDS011;63338;39.544;2.596;2023-05-02T11:48:00;4.55;;;1.00;;
74808;SDS011;63338;39.544;2.596;2023-05-02T11:50:40;4.13;;;1.33;;
74808;SDS011;63338;39.544;2.596;2023-05-02T11:53:13;2.88;;;0.60;;
74808;SDS011;63338;39.544;2.596;2023-05-02T11:55:45;3.70;;;1.10;;
74808;SDS011;63338;39.544;2.596;2023-05-02T11:58:13;4.28;;;0.90;;
74808;SDS011;63338;39.544;2.596;2023-05-02T12:00:41;4.82;;;1.00;;
74808;SDS011;63338;39.544;2.596;2023-05-02T12:03:25;5.63;;;1.20;;
74808;SDS011;63338;39.544;2.596;2023-05-02T12:05:51;5.72;;;0.90;;
74808;SDS011;63338;39.544;2.596;2023-05-02T12:08:22;2.55;;;0.80;;
74808;SDS011;63338;39.544;2.596;2023-05-02T12:10:50;3.00;;;0.80;;
74808;SDS011;63338;39.544;2.596;2023-05-02T12:13:17;2.25;;;0.80;;
74808;SDS011;63338;39.544;2.596;2023-05-02T12:15:44;4.10;;;0.88;;
74808;SDS011;63338;39.544;2.596;2023-05-02T12:18:11;2.83;;;0.90;;
74808;SDS011;63338;39.544;2.596;2023-05-02T12:20:38;5.45;;;1.20;;
74808;SDS011;63338;39.544;2.596;2023-05-02T12:23:05;5.13;;;1.17;;
74808;SDS011;63338;39.544;2.596;2023-05-02T12:25:39;5.43;;;1.10;;
74808;SDS011;63338;39.544;2.596;2023-05-02T12:28:06;4.55;;;1.23;;
74808;SDS011;63338;39.544;2.596;2023-05-02T12:30:35;4.32;;;1.10;;
74808;SDS011;63338;39.544;2.596;2023-05-02T12:33:06;3.75;;;1.05;;
74808;SDS011;63338;39.544;2.596;2023-05-02T12:35:32;6.18;;;1.50;;
74808;SDS011;63338;39.544;2.596;2023-05-02T12:38:13;4.18;;;1.02;;
74808;SDS011;63338;39.544;2.596;2023-05-02T12:40:48;6.38;;;1.10;;
74808;SDS011;63338;39.544;2.596;2023-05-02T12:43:15;5.47;;;1.00;;
74808;SDS011;63338;39.544;2.596;2023-05-02T12:45:42;5.07;;;0.82;;
74808;SDS011;63338;39.544;2.596;2023-05-02T12:48:24;4.30;;;1.00;;
74808;SDS011;63338;39.544;2.596;2023-05-02T12:50:52;4.45;;;1.00;;
74808;SDS011;63338;39.544;2.596;2023-05-02T12:58:44;4.93;;;0.90;;
74808;SDS011;63338;39.544;2.596;2023-05-02T13:01:12;3.85;;;0.80;;
74808;SDS011;63338;39.544;2.596;2023-05-02T13:03:39;5.78;;;1.17;;
74808;SDS011;63338;39.544;2.596;2023-05-02T13:06:06;4.55;;;0.82;;
74808;SDS011;63338;39.544;2.596;2023-05-02T13:08:33;4.45;;;0.85;;
74808;SDS011;63338;39.544;2.596;2023-05-02T13:11:03;3.13;;;0.80;;
74808;SDS011;63338;39.544;2.596;2023-05-02T13:13:41;5.05;;;1.00;;
74808;SDS011;63338;39.544;2.596;2023-05-02T13:16:13;4.38;;;1.30;;
74808;SDS011;63338;39.544;2.596;2023-05-02T13:18:39;4.25;;;1.10;;
74808;SDS011;63338;39.544;2.596;2023-05-02T13:21:08;5.90;;;1.10;;
74808;SDS011;63338;39.544;2.596;2023-05-02T13:23:34;5.85;;;1.15;;
74808;SDS011;63338;39.544;2.596;2023-05-02T13:26:00;4.57;;;0.82;;
74808;SDS011;63338;39.544;2.596;2023-05-02T13:28:26;3.65;;;0.80;;
74808;SDS011;63338;39.544;2.596;2023-05-02T13:30:57;6.43;;;1.20;;
74808;SDS011;63338;39.544;2.596;2023-05-02T13:33:25;3.97;;;0.80;;
74808;SDS011;63338;39.544;2.596;2023-05-02T13:35:51;4.18;;;0.90;;
74808;SDS011;63338;39.544;2.596;2023-05-02T13:38:17;3.03;;;0.80;;
74808;SDS011;63338;39.544;2.596;2023-05-02T13:40:43;5.40;;;1.23;;
74808;SDS011;63338;39.544;2.596;2023-05-02T13:43:12;5.78;;;1.00;;
74808;SDS011;63338;39.544;2.596;2023-05-02T13:45:39;4.93;;;0.90;;
74808;SDS011;63338;39.544;2.596;2023-05-02T13:48:05;4.97;;;1.15;;
74808;SDS011;63338;39.544;2.596;2023-05-02T13:50:32;5.28;;;1.10;;
74808;SDS011;63338;39.544;2.596;2023-05-02T13:53:01;4.82;;;1.20;;
74808;SDS011;63338;39.544;2.596;2023-05-02T13:55:27;5.75;;;1.10;;
74808;SDS011;63338;39.544;2.596;2023-05-02T13:57:54;5.78;;;1.40;;
74808;SDS011;63338;39.544;2.596;2023-05-02T14:00:20;5.25;;;1.02;;
74808;SDS011;63338;39.544;2.596;2023-05-02T14:03:09;6.28;;;1.20;;
74808;SDS011;63338;39.544;2.596;2023-05-02T14:05:38;6.82;;;1.08;;
74808;SDS011;63338;39.544;2.596;2023-05-02T14:08:08;3.22;;;1.15;;
74808;SDS011;63338;39.544;2.596;2023-05-02T14:10:35;6.28;;;1.00;;
74808;SDS011;63338;39.544;2.596;2023-05-02T14:13:02;5.13;;;1.10;;
74808;SDS011;63338;39.544;2.596;2023-05-02T14:15:31;4.18;;;0.82;;
74808;SDS011;63338;39.544;2.596;2023-05-02T14:17:57;4.95;;;1.30;;
74808;SDS011;63338;39.544;2.596;2023-05-02T14:20:26;6.05;;;1.13;;
74808;SDS011;63338;39.544;2.596;2023-05-02T14:22:52;4.25;;;1.00;;
74808;SDS011;63338;39.544;2.596;2023-05-02T14:25:18;6.35;;;1.00;;
74808;SDS011;63338;39.544;2.596;2023-05-02T14:27:45;5.07;;;0.98;;
74808;SDS011;63338;39.544;2.596;2023-05-02T14:30:11;5.35;;;1.15;;
74808;SDS011;63338;39.544;2.596;2023-05-02T14:32:37;5.40;;;1.23;;
74808;SDS011;63338;39.544;2.596;2023-05-02T14:35:04;4.97;;;1.40;;
74808;SDS011;63338;39.544;2.596;2023-05-02T14:37:31;9.15;;;1.48;;
74808;SDS011;63338;39.544;2.596;2023-05-02T14:39:57;7.88;;;1.20;;
74808;SDS011;63338;39.544;2.596;2023-05-02T14:42:23;7.32;;;1.17;;
74808;SDS011;63338;39.544;2.596;2023-05-02T14:44:49;8.02;;;1.45;;
74808;SDS011;63338;39.544;2.596;2023-05-02T14:47:16;6.03;;;1.20;;
74808;SDS011;63338;39.544;2.596;2023-05-02T14:49:42;10.88;;;1.42;;
74808;SDS011;63338;39.544;2.596;2023-05-02T14:52:11;9.73;;;1.70;;
74808;SDS011;63338;39.544;2.596;2023-05-02T14:54:37;12.95;;;1.67;;
74808;SDS011;63338;39.544;2.596;2023-05-02T14:57:04;13.95;;;1.48;;
74808;SDS011;63338;39.544;2.596;2023-05-02T14:59:30;10.18;;;1.33;;
74808;SDS011;63338;39.544;2.596;2023-05-02T15:01:56;10.45;;;1.70;;
74808;SDS011;63338;39.544;2.596;2023-05-02T15:04:22;9.45;;;1.42;;
74808;SDS011;63338;39.544;2.596;2023-05-02T15:06:50;9.65;;;1.60;;
74808;SDS011;63338;39.544;2.596;2023-05-02T15:09:18;7.18;;;1.52;;
74808;SDS011;63338;39.544;2.596;2023-05-02T15:11:44;10.95;;;1.50;;
74808;SDS011;63338;39.544;2.596;2023-05-02T15:14:10;7.18;;;1.20;;
74808;SDS011;63338;39.544;2.596;2023-05-02T15:16:37;8.15;;;1.17;;
74808;SDS011;63338;39.544;2.596;2023-05-02T15:19:04;9.23;;;1.23;;
74808;SDS011;63338;39.544;2.596;2023-05-02T15:21:30;10.10;;;1.30;;
74808;SDS011;63338;39.544;2.596;2023-05-02T15:23:56;15.32;;;1.60;;
74808;SDS011;63338;39.544;2.596;2023-05-02T15:26:23;12.95;;;1.50;;
74808;SDS011;63338;39.544;2.596;2023-05-02T15:28:50;7.72;;;1.58;;
74808;SDS011;63338;39.544;2.596;2023-05-02T15:31:16;7.22;;;1.65;;
74808;SDS011;63338;39.544;2.596;2023-05-02T15:33:42;8.38;;;1.42;;
74808;SDS011;63338;39.544;2.596;2023-05-02T15:36:08;7.18;;;1.70;;
74808;SDS011;63338;39.544;2.596;2023-05-02T15:38:40;7.45;;;1.08;;
74808;SDS011;63338;39.544;2.596;2023-05-02T15:41:09;8.27;;;1.58;;
74808;SDS011;63338;39.544;2.596;2023-05-02T15:43:45;10.63;;;2.25;;
74808;SDS011;63338;39.544;2.596;2023-05-02T15:46:10;6.45;;;1.55;;
74808;SDS011;63338;39.544;2.596;2023-05-02T15:48:37;9.07;;;1.25;;
74808;SDS011;63338;39.544;2.596;2023-05-02T15:51:03;9.70;;;1.50;;
74808;SDS011;63338;39.544;2.596;2023-05-02T15:53:33;10.65;;;1.40;;
74808;SDS011;63338;39.544;2.596;2023-05-02T15:56:06;10.38;;;1.77;;